Etusivu
METAR-TAF:

METAR-TAF

Lentoasemat :

Mannheim, Saksa

Leveyspiiri: 49-28-21N, Pituuspiiri: 008-30-56E, korkeus merenpinnasta: 100 m

Tämänhetkinen sää

Tämä raportti tehtiin 3 tuntia ja 49 minuuttia sitten, kello 22.50 UTC
Tuuli 5 kn pohjoisen/luoteesta
Lämpötila 15°C
Kosteus 59%
Ilmanpaine 1023 hPa
Näkyvyys 10 km tai enemmän
ei pilviä alle 1500 m:ssä eikä cumulonimbus-pilviä

METAR: EDFM 092250Z 34005KT CAVOK 15/07 Q1023

Aika: 04:39 (02:39 UTC)

Sääennuste

Tämä raportti tehtiin 9 tuntia ja 39 minuuttia sitten, kello 17.00 UTC
Ennuste voimassa 09. päivästä klo 18 UTC - 09. päivään klo 21 UTC
Tuuli 4 kn pohjoisesta/koillisesta
Näkyvyys 10 km tai enemmän
ei pilviä alle 1500 m:ssä eikä cumulonimbus-pilviä

TAF: EDFM 091700Z 0918/0921 02004KT CAVOK

Säähavainnot ja -ennusteet yli 4000 lentoasemalta (METAR- ja TAF-raportit).

Käytössä olevat sääasemat on merkitty karttaan keltaisilla ja punaisilla pisteillä.

Aseta hiiri pisteen päälle nähdäksesi sääaseman nimen.

Klikkaa sitten nähdäksesi säähavainnot ja -ennusteet.

Kartan vaihtaminen: klikkaa mustalla rastilla varustettuja vihreitä pisteitä, niin voit zoomata sisään; viivalla varustettua vihreää pistettä, niin voit zoomata ulos tai vihreitä nuolia, niin pääset viereisille kartoille.


METAR-TAF: